Time;durP1;ratioP1;P1;durP2;ratioP2;P2;SDS_P1;SDS_P2;PMS_P1;PMS_P2;Temp;Humidity;BMP_temperature;BMP_pressure;BME280_temperature;BME280_humidity;BME280_pressure;Samples;Min_cycle;Max_cycle;Signal;HPM_P1;HPM_P2
2022/10/14 00:01:16;;;;;;;5.95;4.60;;;;;;;21.59;45.92;95132.22;5028299;28;20049;-65
2022/10/14 00:03:41;;;;;;;5.43;4.13;;;;;;;21.47;45.81;95109.00;5028458;28;20061;-66
2022/10/14 00:06:09;;;;;;;5.03;4.30;;;;;;;21.64;45.78;95151.25;5030083;28;20042;-64
2022/10/14 00:08:35;;;;;;;5.63;4.35;;;;;;;22.20;45.33;95221.41;5026442;28;20071;-63
2022/10/14 00:11:05;;;;;;;6.68;4.45;;;;;;;21.03;45.58;95043.78;5021945;28;20643;-67
2022/10/14 00:13:30;;;;;;;6.88;4.85;;;;;;;21.01;45.80;95038.09;5029917;28;20589;-64
2022/10/14 00:15:56;;;;;;;5.63;4.28;;;;;;;22.36;45.62;95242.44;5029685;28;20038;-63
2022/10/14 00:18:22;;;;;;;6.63;5.00;;;;;;;21.98;45.56;95175.19;5023051;28;20057;-66
2022/10/14 00:20:58;;;;;;;5.05;4.30;;;;;;;21.42;45.33;95101.56;5025653;28;20385;-66
2022/10/14 00:23:23;;;;;;;5.68;4.03;;;;;;;20.91;45.42;95013.66;5007725;28;20103;-63
2022/10/14 00:25:49;;;;;;;5.25;4.15;;;;;;;22.32;45.75;95231.06;5009414;28;20042;-63
2022/10/14 00:28:14;;;;;;;5.25;4.22;;;;;;;21.73;46.01;95136.66;5026335;28;20807;-68
2022/10/14 00:30:40;;;;;;;7.28;4.15;;;;;;;22.32;45.99;95241.22;5015567;28;20446;-69
2022/10/14 00:33:05;;;;;;;5.43;4.10;;;;;;;22.23;45.64;95223.16;5025966;28;20048;-66
2022/10/14 00:35:31;;;;;;;6.13;4.82;;;;;;;22.08;45.91;95200.91;5024822;28;20034;-64
2022/10/14 00:37:57;;;;;;;6.03;4.32;;;;;;;21.94;45.79;95185.59;5016980;28;20107;-65
2022/10/14 00:40:24;;;;;;;4.60;3.97;;;;;;;22.04;45.72;95186.78;5016282;28;20042;-62
2022/10/14 00:42:49;;;;;;;5.38;4.30;;;;;;;21.50;45.65;95124.31;5020371;28;20030;-67
2022/10/14 00:45:22;;;;;;;5.32;4.38;;;;;;;22.06;45.55;95192.50;5020643;28;20080;-64
2022/10/14 00:47:48;;;;;;;5.00;4.00;;;;;;;22.29;45.80;95226.63;5022141;28;20041;-63
2022/10/14 00:50:14;;;;;;;6.03;4.10;;;;;;;21.68;45.61;95134.69;5016954;28;20099;-63
2022/10/14 00:52:39;;;;;;;5.97;4.43;;;;;;;22.28;46.00;95219.69;5004700;28;20050;-66
2022/10/14 00:55:12;;;;;;;5.90;4.25;;;;;;;21.57;45.79;95118.41;5000857;28;20046;-63
2022/10/14 00:57:37;;;;;;;5.57;4.13;;;;;;;22.27;45.81;95240.00;4979373;28;20597;-68
2022/10/14 01:00:06;;;;;;;5.15;4.07;;;;;;;22.10;45.57;95190.25;5019213;28;20617;-67
2022/10/14 01:02:32;;;;;;;5.35;3.95;;;;;;;22.12;45.65;95190.50;5023431;28;20029;-64
2022/10/14 01:04:58;;;;;;;6.07;3.60;;;;;;;20.75;45.16;95036.84;5022325;28;20103;-64
2022/10/14 01:07:29;;;;;;;4.57;3.88;;;;;;;22.26;45.81;95200.41;5015616;28;20053;-63
2022/10/14 01:10:09;;;;;;;5.50;4.20;;;;;;;22.27;46.07;95207.34;5023245;28;20400;-63
2022/10/14 01:12:41;;;;;;;5.05;3.70;;;;;;;22.25;45.99;95209.06;5014793;28;20064;-64
2022/10/14 01:15:19;;;;;;;5.18;3.80;;;;;;;22.26;45.78;95200.41;5025106;28;20038;-63
2022/10/14 01:18:15;;;;;;;6.40;4.32;;;;;;;22.25;45.76;95204.34;5008039;28;20514;-62
2022/10/14 01:21:03;;;;;;;5.18;4.18;;;;;;;22.24;45.96;95192.00;5008479;28;20219;-64
2022/10/14 01:23:45;;;;;;;4.40;3.50;;;;;;;22.07;45.72;95161.31;5008722;28;20025;-68
2022/10/14 01:26:38;;;;;;;5.00;3.90;;;;;;;22.22;45.65;95183.59;5020855;28;20049;-64
2022/10/14 01:29:26;;;;;;;4.68;3.30;;;;;;;21.84;45.44;95125.75;5000275;28;20414;-62
2022/10/14 01:31:59;;;;;;;5.32;3.75;;;;;;;21.88;45.79;95139.84;4997156;28;20041;-63
2022/10/14 01:34:26;;;;;;;5.43;3.85;;;;;;;21.74;45.88;95113.69;4995020;28;20042;-63
2022/10/14 01:36:58;;;;;;;5.30;3.97;;;;;;;21.59;45.63;95088.75;4971173;28;20038;-62
2022/10/14 01:39:31;;;;;;;6.28;4.20;;;;;;;21.20;45.59;95025.50;4987656;28;20049;-63
2022/10/14 01:42:06;;;;;;;5.25;3.67;;;;;;;21.19;45.62;95018.59;4980206;28;20064;-68
2022/10/14 01:44:32;;;;;;;5.45;3.72;;;;;;;22.19;45.85;95168.22;4976376;28;20054;-61
2022/10/14 01:46:57;;;;;;;6.47;4.28;;;;;;;21.66;45.77;95097.13;5000084;28;20041;-65
2022/10/14 01:49:34;;;;;;;4.80;3.33;;;;;;;22.17;45.67;95165.28;4993406;28;20061;-62
2022/10/14 01:52:13;;;;;;;4.97;3.50;;;;;;;22.18;45.50;95172.22;4971177;28;20038;-63
2022/10/14 01:54:40;;;;;;;5.22;3.47;;;;;;;21.70;45.37;95092.19;4992264;28;20060;-65
2022/10/14 01:57:09;;;;;;;4.90;3.30;;;;;;;22.16;45.57;95163.78;5008180;28;20042;-65
2022/10/14 01:59:34;;;;;;;5.43;3.67;;;;;;;21.58;45.62;95084.53;4988307;28;20022;-64
2022/10/14 02:02:00;;;;;;;5.00;3.30;;;;;;;21.51;45.49;95077.63;5005052;28;20052;-64
2022/10/14 02:04:25;;;;;;;5.50;3.28;;;;;;;21.38;45.52;95071.19;5005558;28;20034;-64
2022/10/14 02:07:11;;;;;;;4.97;3.33;;;;;;;21.84;45.53;95136.63;5004656;28;20041;-66
2022/10/14 02:09:57;;;;;;;5.53;3.13;;;;;;;22.14;45.71;95177.16;4981782;28;20045;-62
2022/10/14 02:12:44;;;;;;;4.95;3.20;;;;;;;22.15;46.02;95167.75;5013059;28;20077;-67
2022/10/14 02:15:18;;;;;;;4.55;3.10;;;;;;;21.09;45.43;95028.22;5000558;28;20611;-67
2022/10/14 02:17:52;;;;;;;6.68;3.30;;;;;;;21.16;45.63;95025.00;4973165;28;20496;-65
2022/10/14 02:20:25;;;;;;;4.22;3.20;;;;;;;21.44;45.54;95061.06;5014671;28;20033;-61
2022/10/14 02:23:05;;;;;;;3.88;3.05;;;;;;;21.49;45.49;95093.69;5003228;28;20029;-62
2022/10/14 02:25:32;;;;;;;6.57;3.60;;;;;;;;;;4990664;28;20116;-63
2022/10/14 02:27:58;;;;;;;3.90;3.08;;;;;;;21.46;45.59;95069.47;5023053;28;20041;-62
2022/10/14 02:30:23;;;;;;;5.55;3.58;;;;;;;21.97;45.69;95151.97;5022999;28;20600;-61
2022/10/14 02:32:49;;;;;;;4.63;3.42;;;;;;;21.11;45.46;95082.78;4989038;28;20100;-66
2022/10/14 02:35:15;;;;;;;4.43;3.22;;;;;;;21.84;45.73;95120.31;5024674;28;20018;-64
2022/10/14 02:37:41;;;;;;;5.07;3.08;;;;;;;21.23;45.75;95040.81;4987205;28;20098;-63
2022/10/14 02:40:07;;;;;;;4.45;3.03;;;;;;;22.12;45.86;95166.03;5006787;28;20431;-64
2022/10/14 02:42:32;;;;;;;4.07;3.10;;;;;;;22.12;45.73;95163.31;5023218;28;20133;-63
2022/10/14 02:44:58;;;;;;;5.28;2.97;;;;;;;22.12;46.10;95162.56;5022764;28;20105;-62
2022/10/14 02:47:24;;;;;;;4.60;3.28;;;;;;;20.83;45.67;94969.25;4995860;28;20599;-64
2022/10/14 02:49:49;;;;;;;3.95;3.05;;;;;;;21.42;45.91;95068.22;5020591;28;20060;-62
2022/10/14 02:52:15;;;;;;;5.07;3.40;;;;;;;21.09;45.74;95001.09;5022238;28;20048;-64
2022/10/14 02:54:40;;;;;;;4.80;3.30;;;;;;;21.77;45.85;95104.53;5023535;28;20477;-65
2022/10/14 02:57:06;;;;;;;4.55;3.17;;;;;;;21.06;45.58;95064.50;5000866;28;20030;-65
2022/10/14 02:59:31;;;;;;;4.53;3.17;;;;;;;21.89;45.30;95123.03;5019115;28;20026;-64
2022/10/14 03:01:57;;;;;;;5.13;3.25;;;;;;;21.08;45.64;94996.88;5006176;28;20065;-65
2022/10/14 03:04:22;;;;;;;4.43;3.13;;;;;;;22.10;45.76;95149.47;5014922;28;20045;-62
2022/10/14 03:06:48;;;;;;;4.22;2.90;;;;;;;21.36;45.96;95060.09;5036185;28;20033;-62
2022/10/14 03:09:13;;;;;;;4.00;2.85;;;;;;;21.40;45.47;95038.09;5025939;28;20037;-61
2022/10/14 03:11:39;;;;;;;5.43;3.30;;;;;;;21.61;45.79;95086.25;5022893;28;20484;-62
2022/10/14 03:14:04;;;;;;;4.10;3.10;;;;;;;21.50;45.96;95065.28;5023981;28;20518;-62
2022/10/14 03:16:30;;;;;;;5.63;3.13;;;;;;;21.07;45.81;95049.69;5012528;28;20029;-61
2022/10/14 03:18:55;;;;;;;4.53;3.00;;;;;;;22.09;46.09;95141.78;5024447;28;20038;-63
2022/10/14 03:21:20;;;;;;;3.95;3.10;;;;;;;22.00;45.69;95123.78;5023384;28;20033;-67
2022/10/14 03:23:46;;;;;;;4.80;3.20;;;;;;;21.98;45.75;95109.94;5023487;28;20022;-62
2022/10/14 03:26:11;;;;;;;4.32;2.80;;;;;;;21.92;46.02;95115.88;5020924;28;20413;-67
2022/10/14 03:28:37;;;;;;;4.40;2.95;;;;;;;22.09;45.75;95137.13;4996031;28;20119;-63
2022/10/14 03:31:02;;;;;;;4.78;2.92;;;;;;;21.96;45.82;95128.72;5002963;28;20042;-62
2022/10/14 03:33:28;;;;;;;3.92;2.95;;;;;;;21.12;45.69;95013.66;5003446;28;20584;-61
2022/10/14 03:35:53;;;;;;;5.10;3.10;;;;;;;22.09;45.89;95142.56;5001583;28;20095;-65
2022/10/14 03:38:19;;;;;;;4.93;3.47;;;;;;;21.15;46.05;95003.78;4994127;28;20030;-63
2022/10/14 03:40:44;;;;;;;3.92;2.97;;;;;;;21.84;45.97;95104.03;5003624;28;21042;-62
2022/10/14 03:43:10;;;;;;;3.83;3.00;;;;;;;22.07;45.88;95145.00;5003131;28;20050;-63
2022/10/14 03:45:35;;;;;;;4.10;2.90;;;;;;;21.78;45.67;95095.88;5003520;28;20049;-64
2022/10/14 03:48:00;;;;;;;5.03;3.10;;;;;;;21.87;46.00;95124.78;5002555;28;20050;-61
2022/10/14 03:50:27;;;;;;;5.18;3.10;;;;;;;21.01;45.91;94981.06;5036238;28;20369;-66
2022/10/14 03:52:52;;;;;;;4.28;3.20;;;;;;;21.98;46.16;95134.41;5021253;28;20038;-63
2022/10/14 03:55:18;;;;;;;3.67;2.80;;;;;;;22.07;45.95;95136.13;5021823;28;20045;-68
2022/10/14 03:57:43;;;;;;;4.00;3.03;;;;;;;21.14;46.02;95000.34;5017543;28;20041;-62
2022/10/14 04:00:09;;;;;;;4.13;3.08;;;;;;;22.06;46.20;95126.47;5017648;28;20034;-66
2022/10/14 04:02:35;;;;;;;3.72;2.90;;;;;;;21.82;45.97;95112.66;5010884;28;20044;-64
2022/10/14 04:05:00;;;;;;;4.88;3.30;;;;;;;21.44;45.92;95044.75;5015357;28;20033;-62
2022/10/14 04:07:26;;;;;;;4.70;2.83;;;;;;;21.90;46.21;95102.03;5016181;28;20037;-62
2022/10/14 04:09:51;;;;;;;3.75;2.80;;;;;;;22.03;45.94;95133.66;5023362;28;20416;-67
2022/10/14 04:12:16;;;;;;;3.45;2.65;;;;;;;21.31;46.11;95014.63;5010714;28;20101;-62
2022/10/14 04:14:42;;;;;;;4.63;2.88;;;;;;;20.61;46.11;94910.28;5023380;28;20702;-64
2022/10/14 04:17:07;;;;;;;4.32;2.90;;;;;;;21.45;45.96;95038.09;5022223;28;20325;-64
2022/10/14 04:19:33;;;;;;;4.35;2.90;;;;;;;21.04;45.93;94968.50;5018025;28;20046;-63
2022/10/14 04:21:58;;;;;;;4.22;3.10;;;;;;;21.47;46.07;95030.22;5012721;28;20468;-65
2022/10/14 04:24:24;;;;;;;3.72;2.60;;;;;;;21.16;45.89;94981.56;5013901;28;20053;-63
2022/10/14 04:26:50;;;;;;;4.00;2.75;;;;;;;21.18;45.99;94984.53;5021426;28;20041;-62
2022/10/14 04:29:16;;;;;;;4.45;3.00;;;;;;;21.23;46.13;94985.78;5022509;28;20040;-62
2022/10/14 04:31:42;;;;;;;4.30;3.05;;;;;;;21.21;45.98;94988.97;5017731;28;20042;-60
2022/10/14 04:34:09;;;;;;;5.03;3.15;;;;;;;22.03;45.58;95122.78;5014580;28;20509;-64
2022/10/14 04:36:34;;;;;;;4.75;2.97;;;;;;;21.75;46.07;95101.56;4996999;28;20108;-62
2022/10/14 04:38:59;;;;;;;3.60;2.90;;;;;;;21.23;46.32;94994.66;5014579;28;20049;-68
2022/10/14 04:41:25;;;;;;;3.85;2.65;;;;;;;21.67;46.07;95065.25;5020222;28;20374;-65
2022/10/14 04:43:50;;;;;;;4.43;3.10;;;;;;;21.98;45.98;95112.66;5018096;28;20503;-67
2022/10/14 04:46:16;;;;;;;4.72;3.00;;;;;;;21.23;46.21;94989.22;5024897;28;20084;-65
2022/10/14 04:48:41;;;;;;;4.30;3.00;;;;;;;21.12;46.46;94981.09;5020339;28;20137;-63
2022/10/14 04:51:07;;;;;;;4.68;3.20;;;;;;;22.02;46.12;95104.97;5025393;28;20042;-67
2022/10/14 04:53:32;;;;;;;3.90;3.03;;;;;;;21.27;46.25;95003.28;5024503;28;20040;-68
2022/10/14 04:55:58;;;;;;;4.30;2.92;;;;;;;20.69;46.04;94894.28;5022516;28;20124;-67
2022/10/14 04:58:23;;;;;;;3.90;3.00;;;;;;;22.03;46.09;95117.34;5019045;28;20060;-65
2022/10/14 05:00:49;;;;;;;5.82;3.35;;;;;;;21.44;46.37;95017.59;5026218;28;20096;-62
2022/10/14 05:03:14;;;;;;;6.53;3.80;;;;;;;21.07;46.47;94957.38;4994884;28;20030;-62
2022/10/14 05:05:39;;;;;;;5.18;3.15;;;;;;;21.39;46.40;95015.63;5021777;28;20036;-64
2022/10/14 05:08:05;;;;;;;4.38;3.05;;;;;;;21.58;46.67;95027.47;5018513;28;20076;-63
2022/10/14 05:10:30;;;;;;;12.70;11.00;;;;;;;21.99;46.65;95089.66;5020110;28;20041;-63
2022/10/14 05:12:56;;;;;;;30.67;27.70;;;;;;;22.10;46.73;95099.78;5023333;28;20531;-65
2022/10/14 05:15:21;;;;;;;11.50;10.40;;;;;;;21.93;46.48;95078.06;5038574;28;20106;-64
2022/10/14 05:17:47;;;;;;;12.38;11.18;;;;;;;21.98;46.35;95082.72;5044815;28;20044;-64
2022/10/14 05:20:12;;;;;;;10.82;9.75;;;;;;;21.17;46.44;94942.31;5020713;28;20033;-66
2022/10/14 05:22:38;;;;;;;10.50;9.18;;;;;;;21.19;46.74;94931.69;5020139;28;20064;-67
2022/10/14 05:25:04;;;;;;;9.98;8.90;;;;;;;22.27;47.20;95087.66;5026757;28;20049;-62
2022/10/14 05:27:29;;;;;;;9.65;8.65;;;;;;;22.05;47.17;95065.19;5002232;28;20153;-63
2022/10/14 05:29:55;;;;;;;10.52;9.52;;;;;;;21.41;47.61;94953.38;5045346;28;20017;-63
2022/10/14 05:32:20;;;;;;;9.77;8.60;;;;;;;22.04;48.15;95045.41;5046510;28;20021;-63
2022/10/14 05:34:45;;;;;;;9.18;8.25;;;;;;;22.11;48.13;95042.16;5046035;28;20538;-66
2022/10/14 05:37:11;;;;;;;9.07;8.18;;;;;;;21.99;47.46;95029.13;5039627;28;20153;-61
2022/10/14 05:39:36;;;;;;;8.85;7.75;;;;;;;21.75;46.87;94988.16;5026382;28;20619;-65
2022/10/14 05:42:02;;;;;;;8.50;7.70;;;;;;;22.33;46.93;95091.09;5024492;28;20563;-66
2022/10/14 05:44:28;;;;;;;8.27;7.47;;;;;;;22.22;46.79;95053.03;5026463;28;20930;-66
2022/10/14 05:46:53;;;;;;;8.70;7.45;;;;;;;22.30;46.66;95072.28;5009385;28;20412;-61
2022/10/14 05:49:18;;;;;;;7.63;6.93;;;;;;;21.42;46.31;94937.81;5022540;28;20718;-64
2022/10/14 05:51:44;;;;;;;11.85;7.13;;;;;;;22.43;46.55;95092.28;5024531;28;20049;-62
2022/10/14 05:54:10;;;;;;;7.60;6.78;;;;;;;22.07;46.50;95028.06;5025629;28;20058;-62
2022/10/14 05:56:36;;;;;;;8.18;6.97;;;;;;;21.72;46.26;94974.81;5039771;28;20048;-66
2022/10/14 05:59:01;;;;;;;7.70;6.80;;;;;;;21.85;46.16;94972.31;5016056;28;20041;-64
2022/10/14 06:01:27;;;;;;;8.80;6.55;;;;;;;22.88;46.06;95128.94;5000163;28;20088;-65
2022/10/14 06:03:52;;;;;;;7.45;6.45;;;;;;;22.98;45.79;95134.34;5045944;28;20048;-63
2022/10/14 06:06:18;;;;;;;6.80;6.05;;;;;;;22.43;45.61;95029.69;5045142;28;20048;-64
2022/10/14 06:08:43;;;;;;;6.63;5.90;;;;;;;22.89;45.78;95121.00;5012903;28;20037;-63
2022/10/14 06:11:09;;;;;;;6.57;5.90;;;;;;;22.53;45.30;95039.03;5027579;28;20375;-62
2022/10/14 06:13:35;;;;;;;6.47;5.47;;;;;;;23.02;45.42;95129.38;5037432;28;20514;-66
2022/10/14 06:16:04;;;;;;;7.53;6.18;;;;;;;22.97;45.60;95127.44;5034095;28;20463;-63
2022/10/14 06:18:30;;;;;;;8.77;5.72;;;;;;;22.08;45.33;95005.09;4988828;28;20053;-64
2022/10/14 06:20:55;;;;;;;5.72;5.18;;;;;;;22.82;45.37;95117.34;5005280;28;20030;-66
2022/10/14 06:23:21;;;;;;;6.07;5.47;;;;;;;22.04;45.23;94977.41;5024486;28;20029;-64
2022/10/14 06:25:46;;;;;;;6.18;5.25;;;;;;;22.90;45.16;95100.72;5032558;28;20048;-65
2022/10/14 06:28:12;;;;;;;7.00;5.43;;;;;;;23.15;45.24;95145.91;5043649;28;20566;-66
2022/10/14 06:30:37;;;;;;;6.45;5.20;;;;;;;22.32;45.27;95035.19;5029090;28;20080;-66
2022/10/14 06:33:03;;;;;;;5.85;5.15;;;;;;;22.68;44.89;95063.97;5022785;28;20046;-64
2022/10/14 06:35:28;;;;;;;6.65;5.43;;;;;;;23.18;44.66;95131.25;5026757;28;20052;-63
2022/10/14 06:37:53;;;;;;;6.50;5.22;;;;;;;23.04;44.64;95126.88;5040624;28;20044;-62
2022/10/14 06:40:19;;;;;;;6.40;4.75;;;;;;;22.72;44.67;95067.13;5021812;28;20532;-64
2022/10/14 06:42:44;;;;;;;7.65;5.22;;;;;;;23.33;44.75;95153.47;5024119;28;20056;-65
2022/10/14 06:45:10;;;;;;;5.35;4.72;;;;;;;22.86;44.58;95071.53;5027852;28;20037;-66
2022/10/14 06:47:35;;;;;;;5.47;4.93;;;;;;;23.39;44.66;95135.09;5033530;28;20087;-71
2022/10/14 06:50:01;;;;;;;6.60;4.97;;;;;;;22.64;44.11;95022.66;5006170;28;20115;-62
2022/10/14 06:52:26;;;;;;;6.15;4.75;;;;;;;21.38;44.58;94916.34;5036670;28;20476;-63
2022/10/14 06:54:52;;;;;;;5.32;4.72;;;;;;;23.74;43.99;95143.28;5021980;28;20427;-62
2022/10/14 06:57:17;;;;;;;5.70;4.97;;;;;;;23.73;43.86;95139.09;5031495;28;20474;-67
2022/10/14 06:59:43;;;;;;;5.70;4.55;;;;;;;23.58;43.84;95146.84;5029210;28;20596;-62
2022/10/14 07:02:09;;;;;;;4.90;4.20;;;;;;;23.51;43.59;95142.69;5040714;28;20033;-65
2022/10/14 07:04:34;;;;;;;5.18;4.30;;;;;;;23.24;44.26;95096.53;5020107;28;20040;-62
2022/10/14 07:07:01;;;;;;;4.70;4.25;;;;;;;22.92;43.51;95054.63;5039843;28;20037;-63
2022/10/14 07:09:27;;;;;;;5.38;4.40;;;;;;;23.21;43.82;95103.00;5037817;28;20045;-67
2022/10/14 07:11:53;;;;;;;5.13;4.47;;;;;;;23.61;43.11;95113.13;5042647;28;20025;-61
2022/10/14 07:14:18;;;;;;;5.57;4.50;;;;;;;23.67;43.59;95144.56;5021504;28;20037;-61
2022/10/14 07:16:43;;;;;;;6.80;4.55;;;;;;;22.29;42.72;94938.25;5030696;28;20041;-63
2022/10/14 07:19:09;;;;;;;4.30;3.63;;;;;;;23.37;42.98;95099.44;5038371;28;20033;-66
2022/10/14 07:21:34;;;;;;;5.25;4.60;;;;;;;23.65;43.12;95135.44;5041120;28;20894;-64
2022/10/14 07:24:00;;;;;;;4.85;4.15;;;;;;;22.77;42.79;95006.50;5032901;28;20438;-64
2022/10/14 07:26:26;;;;;;;5.28;4.30;;;;;;;23.76;42.46;95146.97;5036810;28;20059;-61
2022/10/14 07:28:51;;;;;;;5.25;4.32;;;;;;;23.40;42.49;95087.50;5041770;28;20480;-61
2022/10/14 07:31:17;;;;;;;4.88;4.10;;;;;;;23.25;42.67;95070.78;5041232;28;20519;-63
2022/10/14 07:33:42;;;;;;;4.85;3.90;;;;;;;23.48;42.40;95096.63;5034880;28;20040;-63
2022/10/14 07:36:13;;;;;;;5.97;4.25;;;;;;;22.70;42.37;94982.53;5038969;28;20895;-64
2022/10/14 07:38:38;;;;;;;5.05;4.10;;;;;;;23.94;42.06;95141.59;5020847;28;20068;-64
2022/10/14 07:41:06;;;;;;;5.57;4.30;;;;;;;23.95;42.01;95137.63;5016794;28;20262;-65
2022/10/14 07:43:32;;;;;;;5.72;4.05;;;;;;;23.00;42.31;95005.84;5031319;28;20041;-61
2022/10/14 07:46:02;;;;;;;7.22;4.07;;;;;;;24.12;41.91;95143.66;5034363;28;20060;-61
2022/10/14 07:48:28;;;;;;;4.53;3.97;;;;;;;22.86;41.54;94957.91;5007012;28;20156;-61
2022/10/14 07:50:54;;;;;;;6.00;4.25;;;;;;;23.88;41.76;95121.84;5027748;28;20503;-62
2022/10/14 07:53:20;;;;;;;5.80;4.05;;;;;;;23.65;41.80;95086.34;5034894;28;20413;-60
2022/10/14 07:55:50;;;;;;;5.38;4.13;;;;;;;24.08;41.99;95129.59;5038396;28;20136;-61
2022/10/14 07:58:18;;;;;;;4.78;4.18;;;;;;;24.04;41.96;95140.03;5038082;28;20112;-62
2022/10/14 08:00:44;;;;;;;6.47;4.78;;;;;;;23.97;41.63;95102.41;5039738;28;20147;-60
2022/10/14 08:03:10;;;;;;;6.10;4.22;;;;;;;23.80;41.04;95048.53;5029815;28;20770;-62
2022/10/14 08:05:35;;;;;;;5.70;3.60;;;;;;;23.52;40.91;95001.69;5025789;28;20033;-62
2022/10/14 08:08:01;;;;;;;5.40;4.20;;;;;;;24.34;41.31;95120.91;5033360;28;20527;-64
2022/10/14 08:10:26;;;;;;;8.60;4.13;;;;;;;23.82;41.83;95089.66;5028933;28;20707;-66
2022/10/14 08:12:52;;;;;;;5.70;4.22;;;;;;;23.74;41.70;95072.41;5041607;28;20064;-63
2022/10/14 08:15:17;;;;;;;5.00;4.10;;;;;;;24.09;41.27;95081.22;5039077;28;20040;-61
2022/10/14 08:17:43;;;;;;;5.43;3.97;;;;;;;23.36;40.98;94967.13;5030568;28;20047;-63
2022/10/14 08:20:08;;;;;;;4.53;3.60;;;;;;;23.99;41.03;95066.41;5035329;28;20478;-64
2022/10/14 08:22:34;;;;;;;5.30;3.70;;;;;;;23.83;41.03;95091.16;5029948;28;20044;-61
2022/10/14 08:25:01;;;;;;;4.85;3.90;;;;;;;23.21;41.48;94988.56;5036268;28;21356;-65
2022/10/14 08:27:26;;;;;;;6.18;4.25;;;;;;;24.30;41.57;95143.00;5028021;28;21253;-62
2022/10/14 08:29:52;;;;;;;5.25;4.03;;;;;;;24.34;41.51;95141.47;5009287;28;20037;-62
2022/10/14 08:32:17;;;;;;;4.53;3.97;;;;;;;23.42;41.00;94959.66;5023518;28;20507;-61
2022/10/14 08:34:42;;;;;;;4.53;4.07;;;;;;;24.29;41.30;95122.44;5042419;28;20044;-61
2022/10/14 08:37:10;;;;;;;4.95;3.85;;;;;;;24.04;41.43;95098.38;5037325;28;20048;-62
2022/10/14 08:39:35;;;;;;;5.35;4.38;;;;;;;23.39;41.42;94998.81;5035634;28;20155;-63
2022/10/14 08:42:22;;;;;;;5.60;4.10;;;;;;;23.70;41.16;95050.13;5032262;28;20057;-65
2022/10/14 08:44:50;;;;;;;5.75;4.00;;;;;;;24.30;41.29;95129.34;5023499;28;20021;-62
2022/10/14 08:47:20;;;;;;;4.82;4.03;;;;;;;23.62;41.39;95043.72;5004983;28;20017;-62
2022/10/14 08:50:05;;;;;;;5.25;4.40;;;;;;;24.20;41.37;95125.50;5022035;28;20384;-63
2022/10/14 08:52:38;;;;;;;5.80;4.32;;;;;;;24.26;41.15;95134.38;5020560;28;20037;-62
2022/10/14 08:55:34;;;;;;;6.22;4.47;;;;;;;23.92;41.11;95078.66;4990298;28;20061;-64
2022/10/14 08:58:05;;;;;;;5.68;4.05;;;;;;;24.40;41.06;95150.34;5030301;28;20192;-63
2022/10/14 09:00:30;;;;;;;5.53;4.20;;;;;;;23.51;41.16;95011.09;4983186;28;20104;-63
2022/10/14 09:02:55;;;;;;;5.20;4.00;;;;;;;23.77;40.83;95022.28;5000347;28;20052;-63
2022/10/14 09:05:22;;;;;;;4.88;3.85;;;;;;;24.55;40.86;95125.38;4976262;28;20037;-65
2022/10/14 09:07:49;;;;;;;6.47;4.07;;;;;;;24.83;40.62;95143.66;5024749;28;20454;-66
2022/10/14 09:10:29;;;;;;;6.43;4.38;;;;;;;23.91;40.42;95006.25;5010467;28;20144;-65
2022/10/14 09:12:55;;;;;;;4.68;3.80;;;;;;;24.32;40.82;95050.44;5021364;28;20045;-66
2022/10/14 09:15:29;;;;;;;5.47;4.00;;;;;;;24.73;40.96;95132.88;4980795;28;20068;-64
2022/10/14 09:18:05;;;;;;;6.30;4.28;;;;;;;24.57;40.78;95081.91;5015605;28;20112;-65
2022/10/14 09:20:30;;;;;;;5.38;4.05;;;;;;;24.90;40.41;95099.38;4982625;28;20026;-64
2022/10/14 09:23:21;;;;;;;5.65;3.95;;;;;;;25.20;40.42;95127.31;5018592;28;20041;-66
2022/10/14 09:25:54;;;;;;;5.13;3.58;;;;;;;25.07;40.56;95129.97;5005108;28;20049;-65
2022/10/14 09:28:21;;;;;;;5.43;3.88;;;;;;;23.68;40.67;94959.94;4999469;28;20038;-65
2022/10/14 09:30:46;;;;;;;6.28;3.90;;;;;;;24.78;40.82;95118.41;5015006;28;20038;-64
2022/10/14 09:33:16;;;;;;;5.53;3.45;;;;;;;24.99;40.63;95123.63;5022637;28;20385;-64
2022/10/14 09:35:41;;;;;;;5.82;3.70;;;;;;;24.92;40.77;95139.84;5007834;28;20492;-63
2022/10/14 09:38:07;;;;;;;6.97;3.97;;;;;;;24.60;40.90;95064.50;5004963;28;20032;-64
2022/10/14 09:40:38;;;;;;;10.20;5.18;;;;;;;24.58;40.71;95050.63;5023718;28;20076;-63
2022/10/14 09:43:09;;;;;;;12.65;7.15;;;;;;;25.01;41.34;95104.69;5007988;28;20048;-64
2022/10/14 09:45:59;;;;;;;14.02;9.88;;;;;;;25.13;41.53;95119.69;5035344;28;20044;-64
2022/10/14 09:48:45;;;;;;;18.75;12.40;;;;;;;25.15;41.65;95128.09;5024019;28;20136;-65
2022/10/14 09:51:32;;;;;;;19.85;11.30;;;;;;;25.09;41.78;95116.50;5032580;28;20063;-67
2022/10/14 09:54:00;;;;;;;18.30;11.93;;;;;;;24.19;41.96;94938.47;5003777;28;20029;-62
2022/10/14 09:56:36;;;;;;;16.35;11.30;;;;;;;25.48;41.67;95103.00;5043072;28;20138;-66
2022/10/14 09:59:03;;;;;;;14.65;9.93;;;;;;;24.26;41.56;94935.16;5027175;28;20039;-64
2022/10/14 10:01:40;;;;;;;15.05;9.90;;;;;;;24.58;41.46;95012.41;4989888;28;20073;-64
2022/10/14 10:04:24;;;;;;;13.18;8.90;;;;;;;25.36;41.68;95112.66;5025001;28;20029;-67
2022/10/14 10:06:53;;;;;;;13.13;8.63;;;;;;;24.47;41.51;94979.81;5023503;28;20532;-66
2022/10/14 10:09:19;;;;;;;12.65;7.82;;;;;;;24.72;41.07;95038.53;5035634;28;20396;-64
2022/10/14 10:11:44;;;;;;;11.18;7.50;;;;;;;24.94;41.67;95045.16;5034878;28;20036;-64
2022/10/14 10:14:31;;;;;;;11.73;7.50;;;;;;;25.44;41.45;95103.31;5008511;28;20447;-65
2022/10/14 10:17:06;;;;;;;11.38;7.57;;;;;;;25.49;41.22;95101.75;5043275;28;20523;-68
2022/10/14 10:19:42;;;;;;;9.07;6.75;;;;;;;25.37;41.91;95097.72;5033384;28;20057;-64
2022/10/14 10:22:16;;;;;;;12.55;7.32;;;;;;;25.60;40.85;95109.78;4988911;28;20647;-64
2022/10/14 10:24:43;;;;;;;10.65;6.10;;;;;;;25.04;40.85;95027.16;5025994;28;20041;-66
2022/10/14 10:27:35;;;;;;;9.35;6.00;;;;;;;25.28;41.20;95100.13;5044702;28;20041;-65
2022/10/14 10:30:26;;;;;;;8.25;5.88;;;;;;;25.59;40.90;95097.38;5031100;28;20052;-64
2022/10/14 10:33:10;;;;;;;7.88;5.40;;;;;;;25.52;40.88;95092.53;5031879;28;20033;-63
2022/10/14 10:36:16;;;;;;;8.02;5.40;;;;;;;24.73;41.09;94982.66;5042110;28;20039;-62
2022/10/14 10:38:54;;;;;;;7.97;5.47;;;;;;;25.67;41.00;95090.78;5020972;28;20044;-62
2022/10/14 10:41:25;;;;;;;6.63;5.18;;;;;;;25.61;40.89;95089.38;5031394;28;20029;-62
2022/10/14 10:44:24;;;;;;;8.77;5.47;;;;;;;25.60;40.42;95071.50;5035971;28;20045;-61
2022/10/14 10:47:25;;;;;;;6.50;4.60;;;;;;;25.81;40.05;95093.06;5024134;28;20508;-63
2022/10/14 10:50:09;;;;;;;5.75;4.10;;;;;;;25.80;40.04;95075.16;4945349;28;20427;-62
2022/10/14 10:52:58;;;;;;;6.95;4.45;;;;;;;25.85;39.86;95077.03;5030314;28;20061;-64
2022/10/14 10:55:52;;;;;;;5.85;4.20;;;;;;;25.88;39.86;95070.53;5035102;28;20057;-63
2022/10/14 10:58:34;;;;;;;6.10;3.85;;;;;;;25.06;39.56;94953.59;4959861;28;20565;-63
2022/10/14 11:01:41;;;;;;;6.38;3.88;;;;;;;24.95;39.46;94936.63;4988416;28;20049;-66
2022/10/14 11:04:25;;;;;;;4.75;3.95;;;;;;;24.85;39.26;94925.31;5010108;28;20075;-64
2022/10/14 11:13:11;;;;;;;4.90;3.70;;;;;;;24.88;39.09;94921.56;5021889;28;20087;-63
2022/10/14 11:15:55;;;;;;;5.03;3.70;;;;;;;25.82;39.09;95056.19;5000581;28;20036;-68
2022/10/14 11:18:46;;;;;;;7.50;3.55;;;;;;;24.64;39.30;94882.00;5002099;28;20041;-64
2022/10/14 11:21:42;;;;;;;5.40;3.13;;;;;;;25.65;38.95;95038.63;5023538;28;20083;-65
2022/10/14 11:24:57;;;;;;;4.90;3.22;;;;;;;25.31;39.42;94968.59;5003469;28;20357;-66
2022/10/14 11:27:47;;;;;;;6.05;3.40;;;;;;;25.86;38.96;95045.69;4987621;28;20429;-67
2022/10/14 11:30:16;;;;;;;4.50;3.28;;;;;;;25.88;38.88;95051.38;5016638;28;20121;-65
2022/10/14 11:33:06;;;;;;;5.18;3.25;;;;;;;25.93;38.93;95039.59;5010868;28;20117;-66
2022/10/14 11:35:55;;;;;;;3.63;2.78;;;;;;;24.54;38.94;94827.06;5018073;28;20034;-66
2022/10/14 11:39:02;;;;;;;4.30;2.63;;;;;;;26.06;38.73;95036.84;4983587;28;20046;-63
2022/10/14 11:42:10;;;;;;;3.50;2.60;;;;;;;25.77;38.11;94998.88;5014329;28;20052;-65
2022/10/14 11:44:38;;;;;;;5.18;3.13;;;;;;;25.02;38.22;94854.81;5007899;28;20056;-63
2022/10/14 11:47:26;;;;;;;4.13;3.00;;;;;;;25.54;38.01;94914.97;5010863;28;20499;-64
2022/10/14 11:50:00;;;;;;;4.00;3.08;;;;;;;25.73;38.18;94938.25;4998754;28;20149;-63
2022/10/14 11:52:28;;;;;;;2.58;1.50;;;;;;;26.01;31.52;94996.66;5016657;28;20290;-64
2022/10/14 11:55:18;;;;;;;2.88;1.67;;;;;;;26.02;32.39;95013.81;5018706;28;20502;-65